TAF and METAR

METAR for Ekofisk Oil Pltf

ENLE 171950Z 34026KT 9999 FEW025 05/M00 Q1010 W07/S6
Report created 17. jan 20:50
wind 26 knots from NNW (340°) visibility > 10km some clouds (~25% cover) at 2500 feet Temperature 5° with dewpoint at -0° (Humidity 70.06%) Pressure 1010 hPa

TAF for Ekofisk Oil Pltf

TAF ENLE 171700Z 1718/1803 34038KT 9999 -SHRASN SCT012TCU BKN025 BECMG 1718/1720 34028KT PROB30 TEMPO 1720/1803 3000 SHSNRA BKN012CB BECMG 1723/1801 34018KT
Report created 17. jan 18:00

between 17. jan 19:00 - 18. jan 04:00

wind 38 knots from NNW (340°) visibility > 10km light sleet showers scattered clouds (~50% cover) at 1200 feet of type towering cumulus broken clouds (~75% cover) at 2500 feet

becoming between 17. jan 19:00 - 17. jan 21:00

wind 28 knots from NNW (340°)

probably (~30%) temporarily between 17. jan 21:00 - 18. jan 04:00

visibility 3000 meters sleet showers broken clouds (~75% cover) at 1200 feet of type cumulonimbus

becoming between 18. jan 00:00 - 18. jan 02:00

wind 18 knots from NNW (340°)